createdAt,value
2022-12-09T00:01:08.632Z,5.14
2022-12-09T00:03:35.656Z,5.13
2022-12-09T00:06:10.583Z,5.11
2022-12-09T00:08:37.581Z,5.12
2022-12-09T00:11:04.737Z,5.10
2022-12-09T00:13:31.536Z,5.07
2022-12-09T00:15:58.407Z,5.06
2022-12-09T00:18:25.626Z,5.03
2022-12-09T00:20:52.573Z,5.02
2022-12-09T00:23:19.391Z,4.99
2022-12-09T00:25:46.118Z,5.00
2022-12-09T00:28:12.946Z,4.98
2022-12-09T00:30:39.777Z,4.95
2022-12-09T00:33:06.648Z,4.90
2022-12-09T00:35:33.406Z,4.90
2022-12-09T00:38:00.231Z,4.89
2022-12-09T00:40:27.038Z,4.89
2022-12-09T00:42:53.837Z,4.86
2022-12-09T00:45:20.820Z,4.83
2022-12-09T00:47:47.847Z,4.80
2022-12-09T00:50:15.890Z,4.75
2022-12-09T00:52:42.667Z,4.73
2022-12-09T00:55:09.901Z,4.68
2022-12-09T00:57:37.054Z,4.66
2022-12-09T01:00:05.262Z,4.65
2022-12-09T01:02:32.590Z,4.63
2022-12-09T01:04:59.957Z,4.62
2022-12-09T01:07:26.962Z,4.60
2022-12-09T01:09:53.609Z,4.59
2022-12-09T01:12:20.593Z,4.59
2022-12-09T01:14:47.659Z,4.58
2022-12-09T01:17:14.533Z,4.55
2022-12-09T01:19:41.388Z,4.53
2022-12-09T01:22:08.393Z,4.51
2022-12-09T01:24:35.145Z,4.47
2022-12-09T01:27:01.938Z,4.47
2022-12-09T01:29:28.837Z,4.39
2022-12-09T01:31:55.838Z,4.37
2022-12-09T01:34:22.715Z,4.39
2022-12-09T01:36:50.761Z,4.41
2022-12-09T01:39:17.815Z,4.41
2022-12-09T01:41:45.879Z,4.40
2022-12-09T01:44:19.574Z,4.36
2022-12-09T01:46:47.037Z,4.34
2022-12-09T01:49:24.064Z,4.32
2022-12-09T01:51:56.974Z,4.30
2022-12-09T01:54:25.857Z,4.27
2022-12-09T01:56:54.108Z,4.25
2022-12-09T01:59:21.346Z,4.22
2022-12-09T02:01:50.911Z,4.19
2022-12-09T02:04:17.999Z,4.21
2022-12-09T02:06:45.061Z,4.20
2022-12-09T02:09:13.872Z,4.18
2022-12-09T02:12:00.167Z,4.16
2022-12-09T02:14:32.615Z,4.12
2022-12-09T02:17:15.291Z,4.09
2022-12-09T02:20:01.874Z,4.08
2022-12-09T02:22:35.288Z,4.06
2022-12-09T02:25:05.340Z,4.05
2022-12-09T02:27:46.628Z,4.04
2022-12-09T02:30:20.685Z,4.00
2022-12-09T02:32:49.981Z,3.99
2022-12-09T02:35:51.326Z,3.98
2022-12-09T02:38:27.743Z,3.94
2022-12-09T02:40:58.133Z,3.94
2022-12-09T02:43:27.450Z,3.92
2022-12-09T02:45:56.253Z,3.91
2022-12-09T02:48:29.030Z,3.88
2022-12-09T02:50:57.549Z,3.87
2022-12-09T02:53:25.189Z,3.87
2022-12-09T02:55:54.970Z,3.86
2022-12-09T02:58:21.909Z,3.86
2022-12-09T03:00:58.548Z,3.86
2022-12-09T03:03:36.075Z,3.84
2022-12-09T03:06:14.452Z,3.85
2022-12-09T03:09:11.374Z,3.85
2022-12-09T03:11:38.420Z,3.81
2022-12-09T03:14:38.906Z,3.80
2022-12-09T03:17:28.747Z,3.79
2022-12-09T03:20:04.906Z,3.77
2022-12-09T03:22:34.962Z,3.77
2022-12-09T03:25:15.959Z,3.76
2022-12-09T03:27:54.251Z,3.75
2022-12-09T03:30:21.248Z,3.77
2022-12-09T03:32:48.477Z,3.76
2022-12-09T03:35:21.371Z,3.75
2022-12-09T03:37:48.976Z,3.75
2022-12-09T03:40:20.137Z,3.75
2022-12-09T03:42:51.458Z,3.75
2022-12-09T03:45:18.992Z,3.75
2022-12-09T03:47:46.052Z,3.77
2022-12-09T03:50:14.131Z,3.76
2022-12-09T03:52:45.167Z,3.75
2022-12-09T03:55:15.172Z,3.76
2022-12-09T03:57:43.435Z,3.77
2022-12-09T04:00:16.474Z,3.77
2022-12-09T04:02:45.359Z,3.76
2022-12-09T04:05:12.528Z,3.77
2022-12-09T04:07:39.706Z,3.77
2022-12-09T04:10:07.537Z,3.78
2022-12-09T04:12:35.235Z,3.78
2022-12-09T04:15:02.046Z,3.79
2022-12-09T04:17:28.977Z,3.79
2022-12-09T04:19:57.416Z,3.80
2022-12-09T04:22:24.221Z,3.81
2022-12-09T04:24:51.276Z,3.80
2022-12-09T04:27:18.365Z,3.80
2022-12-09T04:29:45.718Z,3.79
2022-12-09T04:32:12.777Z,3.80
2022-12-09T04:34:40.160Z,3.79
2022-12-09T04:37:06.964Z,3.81
2022-12-09T04:39:34.351Z,3.80
2022-12-09T04:42:01.271Z,3.81
2022-12-09T04:44:28.036Z,3.81
2022-12-09T04:46:54.900Z,3.80
2022-12-09T04:49:21.733Z,3.81
2022-12-09T04:51:48.508Z,3.81
2022-12-09T04:54:15.483Z,3.81
2022-12-09T04:56:42.476Z,3.81
2022-12-09T04:59:09.442Z,3.81
2022-12-09T05:01:36.404Z,3.82
2022-12-09T05:04:04.179Z,3.81
2022-12-09T05:06:31.319Z,3.80
2022-12-09T05:08:58.700Z,3.82
2022-12-09T05:11:25.996Z,3.82
2022-12-09T05:13:53.951Z,3.81
2022-12-09T05:16:21.438Z,3.82
2022-12-09T05:18:49.101Z,3.81
2022-12-09T05:21:20.924Z,3.82
2022-12-09T05:23:48.555Z,3.83
2022-12-09T05:26:17.918Z,3.84
2022-12-09T05:28:45.059Z,3.85
2022-12-09T05:31:18.064Z,3.85
2022-12-09T05:33:46.105Z,3.85
2022-12-09T05:36:15.128Z,3.87
2022-12-09T05:38:43.030Z,3.88
2022-12-09T05:41:10.387Z,3.88
2022-12-09T05:43:38.382Z,3.89
2022-12-09T05:46:06.072Z,3.89
2022-12-09T05:48:33.547Z,3.91
2022-12-09T05:51:06.205Z,3.91
2022-12-09T05:53:33.985Z,3.92
2022-12-09T05:56:01.083Z,3.93
2022-12-09T05:58:28.285Z,3.94
2022-12-09T06:00:56.904Z,3.96
2022-12-09T06:03:25.134Z,3.97
2022-12-09T06:05:52.337Z,3.99
2022-12-09T06:08:19.755Z,4.00
2022-12-09T06:10:47.452Z,4.00
2022-12-09T06:13:15.877Z,4.01
2022-12-09T06:15:43.092Z,4.03
2022-12-09T06:18:10.632Z,4.03
2022-12-09T06:20:42.575Z,4.02
2022-12-09T06:23:10.230Z,4.04
2022-12-09T06:25:37.095Z,4.05
2022-12-09T06:28:04.749Z,4.07
2022-12-09T06:30:31.962Z,4.09
2022-12-09T06:33:00.632Z,4.10
2022-12-09T06:35:27.883Z,4.13
2022-12-09T06:37:54.814Z,4.16
2022-12-09T06:40:22.797Z,4.18
2022-12-09T06:42:51.361Z,4.16
2022-12-09T06:45:19.455Z,4.17
2022-12-09T06:47:47.565Z,4.17
2022-12-09T06:50:14.649Z,4.18
2022-12-09T06:52:42.122Z,4.19
2022-12-09T06:55:11.224Z,4.19
2022-12-09T06:57:38.345Z,3.99
2022-12-09T07:00:05.890Z,3.78
2022-12-09T07:02:36.198Z,3.60
2022-12-09T07:05:04.717Z,3.48
2022-12-09T07:07:33.343Z,3.31
2022-12-09T07:10:09.039Z,3.16
2022-12-09T07:12:40.158Z,3.04
2022-12-09T07:15:09.309Z,2.96
2022-12-09T07:17:37.024Z,2.87
2022-12-09T07:20:07.283Z,2.78
2022-12-09T07:22:35.114Z,2.73
2022-12-09T07:25:02.297Z,2.75
2022-12-09T07:27:30.396Z,2.77
2022-12-09T07:29:59.746Z,2.74
2022-12-09T07:32:34.875Z,2.72
2022-12-09T07:35:02.383Z,2.71
2022-12-09T07:37:29.712Z,2.70
2022-12-09T07:39:56.586Z,2.71
2022-12-09T07:42:23.442Z,2.70
2022-12-09T07:44:54.625Z,2.72
2022-12-09T07:47:21.612Z,2.74
2022-12-09T07:49:49.179Z,2.75
2022-12-09T07:52:16.366Z,2.83
2022-12-09T07:54:43.144Z,2.89
2022-12-09T07:57:10.728Z,2.96
2022-12-09T07:59:37.911Z,3.00
2022-12-09T08:02:12.457Z,3.10
2022-12-09T08:04:40.469Z,3.21
2022-12-09T08:07:09.183Z,3.28
2022-12-09T08:09:36.171Z,3.35
2022-12-09T08:12:06.950Z,3.45
2022-12-09T08:14:35.392Z,3.55
2022-12-09T08:17:02.628Z,3.67
2022-12-09T08:19:29.645Z,3.76
2022-12-09T08:21:56.844Z,3.85
2022-12-09T08:24:23.669Z,3.90
2022-12-09T08:26:51.449Z,3.92
2022-12-09T08:29:18.598Z,3.97
2022-12-09T08:31:45.701Z,4.00
2022-12-09T08:34:14.324Z,4.01
2022-12-09T08:36:41.950Z,4.03
2022-12-09T08:39:10.436Z,4.03
2022-12-09T08:41:39.146Z,4.06
2022-12-09T08:44:14.466Z,4.06
2022-12-09T08:46:45.812Z,4.06
2022-12-09T08:49:14.296Z,4.02
2022-12-09T08:51:41.407Z,3.98
2022-12-09T08:54:08.524Z,3.93
2022-12-09T08:56:36.001Z,3.87
2022-12-09T08:59:03.751Z,3.84
2022-12-09T09:01:37.534Z,3.78
2022-12-09T09:04:17.124Z,3.74
2022-12-09T09:06:46.648Z,3.68
2022-12-09T09:09:14.554Z,3.67
2022-12-09T09:11:43.150Z,3.66
2022-12-09T09:14:11.564Z,3.67
2022-12-09T09:16:40.863Z,3.72
2022-12-09T09:19:08.723Z,3.76
2022-12-09T09:21:36.107Z,3.76
2022-12-09T09:24:08.679Z,3.77
2022-12-09T09:26:36.246Z,3.76
2022-12-09T09:29:02.922Z,3.82
2022-12-09T09:31:30.431Z,3.89
2022-12-09T09:33:57.832Z,3.96
2022-12-09T09:36:25.266Z,4.06
2022-12-09T09:38:54.930Z,4.18
2022-12-09T09:41:34.761Z,4.32
2022-12-09T09:44:02.025Z,4.42
2022-12-09T09:46:45.254Z,4.52
2022-12-09T09:49:19.040Z,4.58
2022-12-09T09:51:47.698Z,4.67
2022-12-09T09:54:15.362Z,4.75
2022-12-09T09:56:47.251Z,4.80
2022-12-09T09:59:22.990Z,4.87
2022-12-09T10:02:18.785Z,4.93
2022-12-09T10:04:46.289Z,4.99
2022-12-09T10:07:20.145Z,5.08
2022-12-09T10:10:06.593Z,5.16
2022-12-09T10:12:43.882Z,5.22
2022-12-09T10:15:18.112Z,5.26
2022-12-09T10:17:51.202Z,5.25
2022-12-09T10:20:25.578Z,5.28
2022-12-09T10:22:54.233Z,5.34
2022-12-09T10:25:25.403Z,5.38
2022-12-09T10:27:59.709Z,5.41
2022-12-09T10:30:32.169Z,5.43
2022-12-09T10:33:03.835Z,5.48
2022-12-09T10:35:31.049Z,5.53
2022-12-09T10:38:06.904Z,5.59
2022-12-09T10:40:55.156Z,5.61
2022-12-09T10:43:42.034Z,5.64
2022-12-09T10:46:24.367Z,5.67
2022-12-09T10:48:56.000Z,5.74
2022-12-09T10:51:29.187Z,5.82
2022-12-09T10:54:21.952Z,5.87
2022-12-09T10:57:29.915Z,5.93
2022-12-09T11:00:03.949Z,5.93
2022-12-09T11:02:38.287Z,5.96
2022-12-09T11:05:34.013Z,6.00
2022-12-09T11:08:01.848Z,5.88
2022-12-09T11:10:29.991Z,5.84
2022-12-09T11:13:03.817Z,5.91
2022-12-09T11:15:38.935Z,5.83
2022-12-09T11:18:09.580Z,5.71
2022-12-09T11:20:37.011Z,5.71
2022-12-09T11:23:14.286Z,5.82
2022-12-09T11:25:57.009Z,5.91
2022-12-09T11:28:31.986Z,5.98
2022-12-09T11:31:28.263Z,6.13
2022-12-09T11:34:20.725Z,6.21
2022-12-09T11:36:53.097Z,6.19
2022-12-09T11:39:23.118Z,6.17
2022-12-09T11:42:22.019Z,6.23
2022-12-09T11:44:57.878Z,6.25
2022-12-09T11:47:50.083Z,6.29
2022-12-09T11:50:24.208Z,6.41
2022-12-09T11:53:09.804Z,6.45
2022-12-09T11:55:46.911Z,6.44
2022-12-09T11:58:36.526Z,6.50
2022-12-09T12:01:08.404Z,6.50
2022-12-09T12:03:40.035Z,6.56
2022-12-09T12:06:14.449Z,6.64
2022-12-09T12:09:07.717Z,6.75
2022-12-09T12:11:56.573Z,6.83
2022-12-09T12:14:26.729Z,6.75
2022-12-09T12:17:03.246Z,6.76
2022-12-09T12:19:39.395Z,6.78
2022-12-09T12:22:24.838Z,6.81
2022-12-09T12:25:17.218Z,6.72
2022-12-09T12:28:06.511Z,6.53
2022-12-09T12:30:57.528Z,6.50
2022-12-09T12:34:00.869Z,6.54
2022-12-09T12:36:59.321Z,6.59
2022-12-09T12:39:52.658Z,6.67
2022-12-09T12:42:32.413Z,6.70
2022-12-09T12:45:34.463Z,6.52
2022-12-09T12:48:07.726Z,6.39
2022-12-09T12:50:34.997Z,6.28
2022-12-09T12:53:10.821Z,6.28
2022-12-09T12:55:48.980Z,6.32
2022-12-09T12:58:31.697Z,6.21
2022-12-09T13:01:30.109Z,6.13
2022-12-09T13:04:20.934Z,5.98
2022-12-09T13:07:05.921Z,5.90
2022-12-09T13:09:43.832Z,5.96
2022-12-09T13:12:17.166Z,5.99
2022-12-09T13:14:52.254Z,5.83
2022-12-09T13:17:21.345Z,5.76
2022-12-09T13:19:51.665Z,5.71
2022-12-09T13:22:25.910Z,5.87
2022-12-09T13:24:59.975Z,5.92
2022-12-09T13:27:38.070Z,6.03
2022-12-09T13:30:14.111Z,6.01
2022-12-09T13:33:17.357Z,5.95
2022-12-09T13:35:54.803Z,5.73
2022-12-09T13:38:24.573Z,5.59
2022-12-09T13:40:51.358Z,5.66
2022-12-09T13:43:38.272Z,5.84
2022-12-09T13:46:05.043Z,5.90
2022-12-09T13:48:40.372Z,5.85
2022-12-09T13:51:07.195Z,5.88
2022-12-09T13:53:45.976Z,5.94
2022-12-09T13:56:16.689Z,5.92
2022-12-09T13:58:50.436Z,5.76
2022-12-09T14:01:25.856Z,5.51
2022-12-09T14:04:01.318Z,5.48
2022-12-09T14:07:10.451Z,5.50
2022-12-09T14:09:58.463Z,5.53
2022-12-09T14:13:07.742Z,5.52
2022-12-09T14:15:36.262Z,5.60
2022-12-09T14:18:05.497Z,5.63
2022-12-09T14:20:36.247Z,5.64
2022-12-09T14:23:11.882Z,5.70
2022-12-09T14:25:38.637Z,5.71
2022-12-09T14:28:14.220Z,5.70
2022-12-09T14:30:47.208Z,5.72
2022-12-09T14:33:29.301Z,5.73
2022-12-09T14:36:13.672Z,5.72
2022-12-09T14:39:32.506Z,5.72
2022-12-09T14:42:03.446Z,5.68
2022-12-09T14:44:51.399Z,5.74
2022-12-09T14:47:31.751Z,5.63
2022-12-09T14:50:09.033Z,5.55
2022-12-09T14:52:36.257Z,5.48
2022-12-09T14:55:07.119Z,5.42
2022-12-09T14:57:37.690Z,5.39
2022-12-09T15:00:06.945Z,5.35
2022-12-09T15:02:34.195Z,5.26
2022-12-09T15:05:02.090Z,5.17
2022-12-09T15:07:33.420Z,5.14
2022-12-09T15:10:06.566Z,5.12
2022-12-09T15:12:36.574Z,4.96
2022-12-09T15:15:15.832Z,4.93
2022-12-09T15:17:54.587Z,4.94
2022-12-09T15:20:40.844Z,4.92
2022-12-09T15:23:19.505Z,4.85
2022-12-09T15:25:48.705Z,4.74
2022-12-09T15:28:26.092Z,4.65
2022-12-09T15:31:00.530Z,4.60
2022-12-09T15:33:30.411Z,4.53
2022-12-09T15:36:09.745Z,4.51
2022-12-09T15:38:45.121Z,4.44
2022-12-09T15:41:30.535Z,4.38
2022-12-09T15:44:01.750Z,4.30
2022-12-09T15:46:30.677Z,4.26
2022-12-09T15:48:58.331Z,4.19
2022-12-09T15:51:26.795Z,4.15
2022-12-09T15:54:00.495Z,4.12
2022-12-09T15:56:30.947Z,4.09
2022-12-09T15:59:02.036Z,4.03
2022-12-09T16:01:31.130Z,3.98
2022-12-09T16:04:00.130Z,3.92
2022-12-09T16:06:33.808Z,3.89
2022-12-09T16:09:01.897Z,3.93
2022-12-09T16:11:36.152Z,4.04
2022-12-09T16:14:03.054Z,4.16
2022-12-09T16:16:47.997Z,4.28
2022-12-09T16:19:41.837Z,4.39
2022-12-09T16:22:16.204Z,4.52
2022-12-09T16:25:13.496Z,4.59
2022-12-09T16:27:40.085Z,4.73
2022-12-09T16:30:14.189Z,4.82
2022-12-09T16:32:44.638Z,4.89
2022-12-09T16:35:11.339Z,4.96
2022-12-09T16:37:40.543Z,4.99
2022-12-09T16:40:23.578Z,5.07
2022-12-09T16:42:52.264Z,5.10
2022-12-09T16:45:35.445Z,5.15
2022-12-09T16:48:02.918Z,5.19
2022-12-09T16:50:54.390Z,5.21
2022-12-09T16:53:33.042Z,5.24
2022-12-09T16:56:01.802Z,5.26
2022-12-09T16:58:30.738Z,5.31
2022-12-09T17:00:58.445Z,5.33
2022-12-09T17:03:41.350Z,5.35
2022-12-09T17:06:17.944Z,5.35
2022-12-09T17:08:45.843Z,5.38
2022-12-09T17:11:13.045Z,5.40
2022-12-09T17:13:39.839Z,5.42
2022-12-09T17:16:07.203Z,5.44
2022-12-09T17:18:34.384Z,5.44
2022-12-09T17:21:07.547Z,5.46
2022-12-09T17:23:39.678Z,5.48
2022-12-09T17:26:09.271Z,5.50
2022-12-09T17:28:36.614Z,5.53
2022-12-09T17:31:08.367Z,5.55
2022-12-09T17:33:35.349Z,5.57
2022-12-09T17:36:02.101Z,5.58
2022-12-09T17:38:29.590Z,5.61
2022-12-09T17:40:56.929Z,5.63
2022-12-09T17:43:23.744Z,5.64
2022-12-09T17:45:50.482Z,5.67
2022-12-09T17:48:17.337Z,5.68
2022-12-09T17:50:44.376Z,5.69
2022-12-09T17:53:11.149Z,5.72
2022-12-09T17:55:39.099Z,5.73
2022-12-09T17:58:06.042Z,5.75
2022-12-09T18:00:33.808Z,5.78
2022-12-09T18:03:00.798Z,5.79
2022-12-09T18:05:27.471Z,5.81
2022-12-09T18:07:54.302Z,5.82
2022-12-09T18:10:21.219Z,5.84
2022-12-09T18:12:48.038Z,5.86
2022-12-09T18:15:15.071Z,5.89
2022-12-09T18:17:41.955Z,5.89
2022-12-09T18:20:09.758Z,5.90
2022-12-09T18:22:36.694Z,5.92
2022-12-09T18:25:03.360Z,5.93
2022-12-09T18:27:30.403Z,5.94
2022-12-09T18:29:57.181Z,5.96
2022-12-09T18:32:23.954Z,5.96
2022-12-09T18:34:51.103Z,5.98
2022-12-09T18:37:19.654Z,5.99
2022-12-09T18:39:46.320Z,6.02
2022-12-09T18:42:13.113Z,6.03
2022-12-09T18:44:39.833Z,6.04
2022-12-09T18:47:06.589Z,6.03
2022-12-09T18:49:33.304Z,6.01
2022-12-09T18:52:00.022Z,6.00
2022-12-09T18:54:28.548Z,6.03
2022-12-09T18:56:56.668Z,6.07
2022-12-09T18:59:25.632Z,6.09
2022-12-09T19:01:52.707Z,6.11
2022-12-09T19:04:24.977Z,6.13
2022-12-09T19:06:53.839Z,6.14
2022-12-09T19:09:22.789Z,6.16
2022-12-09T19:11:50.748Z,6.16
2022-12-09T19:14:19.835Z,6.16
2022-12-09T19:16:47.357Z,6.19
2022-12-09T19:19:23.713Z,6.19
2022-12-09T19:21:51.212Z,6.20
2022-12-09T19:24:20.999Z,6.20
2022-12-09T19:26:48.552Z,6.23
2022-12-09T19:29:15.956Z,6.22
2022-12-09T19:31:49.132Z,6.21
2022-12-09T19:34:22.826Z,6.22
2022-12-09T19:36:54.104Z,6.23
2022-12-09T19:39:23.661Z,6.23
2022-12-09T19:41:51.002Z,6.23
2022-12-09T19:44:37.240Z,6.18
2022-12-09T19:47:06.513Z,6.22
2022-12-09T19:49:33.328Z,6.24
2022-12-09T19:52:00.231Z,6.26
2022-12-09T19:54:29.632Z,6.28
2022-12-09T19:56:56.924Z,6.28
2022-12-09T19:59:23.839Z,6.29
2022-12-09T20:01:50.643Z,6.30
2022-12-09T20:07:09.347Z,6.33
2022-12-09T20:09:37.407Z,6.32
2022-12-09T20:12:04.395Z,6.35
2022-12-09T20:14:31.118Z,6.35
2022-12-09T20:16:57.854Z,6.37
2022-12-09T20:19:24.825Z,6.38
2022-12-09T20:21:51.657Z,6.39
2022-12-09T20:24:19.231Z,6.39
2022-12-09T20:26:46.079Z,6.39
2022-12-09T20:29:12.789Z,6.40
2022-12-09T20:31:41.057Z,6.42
2022-12-09T20:34:11.812Z,6.42
2022-12-09T20:36:39.776Z,6.52
2022-12-09T20:39:12.497Z,6.46
2022-12-09T20:41:39.979Z,6.43
2022-12-09T20:44:16.199Z,6.43
2022-12-09T20:46:50.428Z,6.42
2022-12-09T20:49:19.736Z,6.44
2022-12-09T20:51:52.599Z,6.44
2022-12-09T20:54:21.082Z,6.46
2022-12-09T20:56:48.874Z,6.45
2022-12-09T20:59:15.716Z,6.47
2022-12-09T21:01:43.758Z,6.47
2022-12-09T21:04:10.602Z,6.49
2022-12-09T21:06:38.739Z,6.49
2022-12-09T21:09:14.973Z,6.50
2022-12-09T21:11:41.926Z,6.52
2022-12-09T21:14:09.568Z,6.51
2022-12-09T21:16:39.625Z,6.52
2022-12-09T21:19:10.416Z,6.53
2022-12-09T21:21:38.851Z,6.62
2022-12-09T21:24:06.151Z,6.56
2022-12-09T21:26:33.017Z,6.54
2022-12-09T21:29:01.478Z,6.53
2022-12-09T21:31:31.467Z,6.53
2022-12-09T21:34:01.796Z,6.54
2022-12-09T21:36:31.596Z,6.54
2022-12-09T21:38:58.381Z,6.55
2022-12-09T21:41:30.233Z,6.53
2022-12-09T21:43:57.917Z,6.56
2022-12-09T21:46:26.966Z,6.57
2022-12-09T21:49:01.594Z,6.58
2022-12-09T21:51:30.316Z,6.59
2022-12-09T21:53:57.572Z,6.59
2022-12-09T21:56:26.042Z,6.59
2022-12-09T21:58:54.261Z,6.59
2022-12-09T22:01:21.083Z,6.60
2022-12-09T22:03:48.635Z,6.60
2022-12-09T22:06:16.686Z,6.61
2022-12-09T22:08:44.015Z,6.62
2022-12-09T22:11:17.026Z,6.62
2022-12-09T22:13:44.457Z,6.63
2022-12-09T22:16:13.615Z,6.62
2022-12-09T22:18:40.958Z,6.64
2022-12-09T22:21:24.870Z,6.65
2022-12-09T22:23:57.361Z,6.64
2022-12-09T22:26:33.397Z,6.64
2022-12-09T22:29:08.553Z,6.65
2022-12-09T22:31:40.745Z,6.66
2022-12-09T22:34:11.712Z,6.66
2022-12-09T22:36:38.729Z,6.66
2022-12-09T22:39:08.909Z,6.66
2022-12-09T22:41:35.772Z,6.68
2022-12-09T22:44:03.350Z,6.66
2022-12-09T22:46:32.943Z,6.66
2022-12-09T22:49:05.282Z,6.67
2022-12-09T22:51:34.751Z,6.68
2022-12-09T22:54:04.188Z,6.67
2022-12-09T22:56:31.013Z,6.67
2022-12-09T22:58:59.574Z,6.66
2022-12-09T23:01:32.729Z,6.67
2022-12-09T23:04:00.075Z,6.69
2022-12-09T23:06:28.278Z,6.71
2022-12-09T23:08:55.503Z,6.72
2022-12-09T23:11:25.149Z,6.72
2022-12-09T23:13:52.202Z,6.72
2022-12-09T23:16:21.559Z,6.72
2022-12-09T23:18:48.663Z,6.72
2022-12-09T23:21:21.857Z,6.71
2022-12-09T23:23:52.002Z,6.72
2022-12-09T23:26:23.501Z,6.72
2022-12-09T23:28:52.020Z,6.71
2022-12-09T23:31:21.298Z,6.72
2022-12-09T23:33:49.031Z,6.72
2022-12-09T23:36:24.800Z,6.71
2022-12-09T23:38:58.592Z,6.71
2022-12-09T23:41:33.392Z,6.70
2022-12-09T23:44:01.118Z,6.73
2022-12-09T23:46:28.548Z,6.72
2022-12-09T23:48:55.909Z,6.71
2022-12-09T23:51:28.518Z,6.70
2022-12-09T23:54:00.582Z,6.70
2022-12-09T23:56:29.528Z,6.72
2022-12-09T23:59:00.573Z,6.70
